sensor_id;sensor_type;location;lat;lon;timestamp;P1;durP1;ratioP1;P2;durP2;ratioP2
65189;SDS011;51777;53.570;9.984;2023-07-29T00:00:32;7.75;;;5.00;;
65189;SDS011;51777;53.570;9.984;2023-07-29T00:02:57;8.20;;;4.95;;
65189;SDS011;51777;53.570;9.984;2023-07-29T00:05:23;6.95;;;4.40;;
65189;SDS011;51777;53.570;9.984;2023-07-29T00:07:48;7.38;;;4.70;;
65189;SDS011;51777;53.570;9.984;2023-07-29T00:10:13;7.90;;;4.38;;
65189;SDS011;51777;53.570;9.984;2023-07-29T00:12:39;7.63;;;4.40;;
65189;SDS011;51777;53.570;9.984;2023-07-29T00:15:05;9.45;;;4.93;;
65189;SDS011;51777;53.570;9.984;2023-07-29T00:17:30;6.10;;;4.80;;
65189;SDS011;51777;53.570;9.984;2023-07-29T00:19:56;8.10;;;5.40;;
65189;SDS011;51777;53.570;9.984;2023-07-29T00:22:21;10.38;;;5.45;;
65189;SDS011;51777;53.570;9.984;2023-07-29T00:24:51;9.52;;;5.38;;
65189;SDS011;51777;53.570;9.984;2023-07-29T00:27:20;6.97;;;5.30;;
65189;SDS011;51777;53.570;9.984;2023-07-29T00:29:46;6.35;;;4.90;;
65189;SDS011;51777;53.570;9.984;2023-07-29T00:32:12;9.43;;;5.00;;
65189;SDS011;51777;53.570;9.984;2023-07-29T00:34:37;8.00;;;4.28;;
65189;SDS011;51777;53.570;9.984;2023-07-29T00:37:02;8.43;;;4.95;;
65189;SDS011;51777;53.570;9.984;2023-07-29T00:39:28;6.97;;;4.78;;
65189;SDS011;51777;53.570;9.984;2023-07-29T00:41:53;7.47;;;5.40;;
65189;SDS011;51777;53.570;9.984;2023-07-29T00:44:19;8.73;;;4.90;;
65189;SDS011;51777;53.570;9.984;2023-07-29T00:46:45;7.18;;;4.68;;
65189;SDS011;51777;53.570;9.984;2023-07-29T00:49:11;7.10;;;5.00;;
65189;SDS011;51777;53.570;9.984;2023-07-29T00:51:42;9.68;;;4.60;;
65189;SDS011;51777;53.570;9.984;2023-07-29T00:54:07;7.72;;;4.82;;
65189;SDS011;51777;53.570;9.984;2023-07-29T00:56:33;7.82;;;4.85;;
65189;SDS011;51777;53.570;9.984;2023-07-29T00:58:58;9.20;;;6.20;;
65189;SDS011;51777;53.570;9.984;2023-07-29T01:01:26;9.48;;;6.05;;
65189;SDS011;51777;53.570;9.984;2023-07-29T01:03:55;8.57;;;5.80;;
65189;SDS011;51777;53.570;9.984;2023-07-29T01:09:05;9.07;;;5.32;;
65189;SDS011;51777;53.570;9.984;2023-07-29T01:11:44;12.18;;;5.80;;
65189;SDS011;51777;53.570;9.984;2023-07-29T01:14:26;8.13;;;5.50;;
65189;SDS011;51777;53.570;9.984;2023-07-29T01:17:07;9.23;;;5.25;;
65189;SDS011;51777;53.570;9.984;2023-07-29T01:22:28;9.80;;;5.35;;
65189;SDS011;51777;53.570;9.984;2023-07-29T01:24:56;10.15;;;5.50;;
65189;SDS011;51777;53.570;9.984;2023-07-29T01:27:22;12.25;;;6.15;;
65189;SDS011;51777;53.570;9.984;2023-07-29T01:29:47;9.65;;;6.05;;
65189;SDS011;51777;53.570;9.984;2023-07-29T01:32:22;7.85;;;5.55;;
65189;SDS011;51777;53.570;9.984;2023-07-29T01:35:06;10.35;;;5.95;;
65189;SDS011;51777;53.570;9.984;2023-07-29T01:37:40;10.15;;;6.00;;
65189;SDS011;51777;53.570;9.984;2023-07-29T01:40:07;11.70;;;5.95;;
65189;SDS011;51777;53.570;9.984;2023-07-29T01:42:34;10.25;;;6.13;;
65189;SDS011;51777;53.570;9.984;2023-07-29T01:45:00;8.30;;;5.63;;
65189;SDS011;51777;53.570;9.984;2023-07-29T01:47:25;9.07;;;6.50;;
65189;SDS011;51777;53.570;9.984;2023-07-29T01:49:51;12.32;;;6.53;;
65189;SDS011;51777;53.570;9.984;2023-07-29T01:52:16;17.75;;;6.60;;
65189;SDS011;51777;53.570;9.984;2023-07-29T01:54:42;13.80;;;7.80;;
65189;SDS011;51777;53.570;9.984;2023-07-29T01:57:07;14.48;;;8.13;;
65189;SDS011;51777;53.570;9.984;2023-07-29T01:59:32;11.70;;;7.40;;
65189;SDS011;51777;53.570;9.984;2023-07-29T02:01:58;11.00;;;6.95;;
65189;SDS011;51777;53.570;9.984;2023-07-29T02:04:23;9.43;;;5.97;;
65189;SDS011;51777;53.570;9.984;2023-07-29T02:06:49;8.10;;;6.07;;
65189;SDS011;51777;53.570;9.984;2023-07-29T02:09:14;11.35;;;6.05;;
65189;SDS011;51777;53.570;9.984;2023-07-29T02:11:39;9.63;;;6.28;;
65189;SDS011;51777;53.570;9.984;2023-07-29T02:14:05;8.57;;;6.25;;
65189;SDS011;51777;53.570;9.984;2023-07-29T02:16:30;8.88;;;6.20;;
65189;SDS011;51777;53.570;9.984;2023-07-29T02:18:57;9.10;;;6.40;;
65189;SDS011;51777;53.570;9.984;2023-07-29T02:21:23;9.52;;;6.82;;
65189;SDS011;51777;53.570;9.984;2023-07-29T02:23:48;7.63;;;6.07;;
65189;SDS011;51777;53.570;9.984;2023-07-29T02:26:13;12.43;;;6.28;;
65189;SDS011;51777;53.570;9.984;2023-07-29T02:28:39;8.15;;;6.15;;
65189;SDS011;51777;53.570;9.984;2023-07-29T02:33:41;8.90;;;6.15;;
65189;SDS011;51777;53.570;9.984;2023-07-29T02:36:06;7.75;;;6.50;;
65189;SDS011;51777;53.570;9.984;2023-07-29T02:38:31;8.02;;;6.25;;
65189;SDS011;51777;53.570;9.984;2023-07-29T02:40:57;10.88;;;6.70;;
65189;SDS011;51777;53.570;9.984;2023-07-29T02:43:22;8.05;;;6.47;;
65189;SDS011;51777;53.570;9.984;2023-07-29T02:45:48;6.95;;;6.15;;
65189;SDS011;51777;53.570;9.984;2023-07-29T02:48:13;6.80;;;5.88;;
65189;SDS011;51777;53.570;9.984;2023-07-29T02:50:38;8.52;;;6.88;;
65189;SDS011;51777;53.570;9.984;2023-07-29T02:53:04;9.18;;;7.07;;
65189;SDS011;51777;53.570;9.984;2023-07-29T02:55:29;9.43;;;7.22;;
65189;SDS011;51777;53.570;9.984;2023-07-29T02:57:54;9.40;;;7.60;;
65189;SDS011;51777;53.570;9.984;2023-07-29T03:00:20;9.02;;;7.88;;
65189;SDS011;51777;53.570;9.984;2023-07-29T03:02:45;15.07;;;8.23;;
65189;SDS011;51777;53.570;9.984;2023-07-29T03:05:10;10.00;;;7.90;;
65189;SDS011;51777;53.570;9.984;2023-07-29T03:07:36;9.75;;;7.93;;
65189;SDS011;51777;53.570;9.984;2023-07-29T03:10:01;14.43;;;8.70;;
65189;SDS011;51777;53.570;9.984;2023-07-29T03:12:27;9.00;;;7.95;;
65189;SDS011;51777;53.570;9.984;2023-07-29T03:14:52;11.60;;;8.02;;
65189;SDS011;51777;53.570;9.984;2023-07-29T03:17:17;11.75;;;7.72;;
65189;SDS011;51777;53.570;9.984;2023-07-29T03:19:43;10.35;;;7.53;;
65189;SDS011;51777;53.570;9.984;2023-07-29T03:22:08;9.02;;;7.70;;
65189;SDS011;51777;53.570;9.984;2023-07-29T03:24:34;9.85;;;7.80;;
65189;SDS011;51777;53.570;9.984;2023-07-29T03:26:59;10.00;;;8.35;;
65189;SDS011;51777;53.570;9.984;2023-07-29T03:29:25;14.38;;;8.57;;
65189;SDS011;51777;53.570;9.984;2023-07-29T03:31:50;11.40;;;8.80;;
65189;SDS011;51777;53.570;9.984;2023-07-29T03:34:15;11.50;;;8.40;;
65189;SDS011;51777;53.570;9.984;2023-07-29T03:36:41;13.85;;;8.55;;
65189;SDS011;51777;53.570;9.984;2023-07-29T03:39:06;12.90;;;8.63;;
65189;SDS011;51777;53.570;9.984;2023-07-29T03:41:32;10.93;;;8.45;;
65189;SDS011;51777;53.570;9.984;2023-07-29T03:43:58;11.40;;;8.30;;
65189;SDS011;51777;53.570;9.984;2023-07-29T03:46:24;12.93;;;8.32;;
65189;SDS011;51777;53.570;9.984;2023-07-29T03:48:50;12.90;;;8.68;;
65189;SDS011;51777;53.570;9.984;2023-07-29T03:51:15;13.93;;;9.00;;
65189;SDS011;51777;53.570;9.984;2023-07-29T03:53:41;11.25;;;9.18;;
65189;SDS011;51777;53.570;9.984;2023-07-29T03:56:07;14.63;;;8.93;;
65189;SDS011;51777;53.570;9.984;2023-07-29T03:58:32;12.93;;;8.85;;
65189;SDS011;51777;53.570;9.984;2023-07-29T04:00:58;14.98;;;9.32;;
65189;SDS011;51777;53.570;9.984;2023-07-29T04:03:24;15.88;;;8.98;;
65189;SDS011;51777;53.570;9.984;2023-07-29T04:05:49;11.82;;;8.93;;
65189;SDS011;51777;53.570;9.984;2023-07-29T04:08:14;11.90;;;9.82;;
65189;SDS011;51777;53.570;9.984;2023-07-29T04:10:40;15.10;;;9.88;;
65189;SDS011;51777;53.570;9.984;2023-07-29T04:13:05;13.45;;;9.93;;
65189;SDS011;51777;53.570;9.984;2023-07-29T04:15:31;16.92;;;11.45;;
65189;SDS011;51777;53.570;9.984;2023-07-29T04:17:56;18.90;;;11.90;;
65189;SDS011;51777;53.570;9.984;2023-07-29T04:20:22;21.38;;;12.25;;
65189;SDS011;51777;53.570;9.984;2023-07-29T04:22:47;21.92;;;12.73;;
65189;SDS011;51777;53.570;9.984;2023-07-29T04:25:12;22.88;;;14.30;;
65189;SDS011;51777;53.570;9.984;2023-07-29T04:27:38;21.13;;;15.25;;
65189;SDS011;51777;53.570;9.984;2023-07-29T04:30:04;26.35;;;16.90;;
65189;SDS011;51777;53.570;9.984;2023-07-29T04:32:30;29.20;;;19.10;;
65189;SDS011;51777;53.570;9.984;2023-07-29T04:34:55;28.73;;;17.65;;
65189;SDS011;51777;53.570;9.984;2023-07-29T04:37:21;30.75;;;19.27;;
65189;SDS011;51777;53.570;9.984;2023-07-29T04:39:46;31.73;;;19.60;;
65189;SDS011;51777;53.570;9.984;2023-07-29T04:42:11;30.98;;;18.60;;
65189;SDS011;51777;53.570;9.984;2023-07-29T04:44:37;26.13;;;16.77;;
65189;SDS011;51777;53.570;9.984;2023-07-29T04:47:02;28.17;;;17.65;;
65189;SDS011;51777;53.570;9.984;2023-07-29T04:49:28;31.35;;;17.98;;
65189;SDS011;51777;53.570;9.984;2023-07-29T04:51:53;31.48;;;18.45;;
65189;SDS011;51777;53.570;9.984;2023-07-29T04:54:18;33.10;;;19.17;;
65189;SDS011;51777;53.570;9.984;2023-07-29T04:56:45;31.95;;;18.30;;
65189;SDS011;51777;53.570;9.984;2023-07-29T04:59:11;30.60;;;18.67;;
65189;SDS011;51777;53.570;9.984;2023-07-29T05:01:38;28.95;;;18.17;;
65189;SDS011;51777;53.570;9.984;2023-07-29T05:04:03;29.77;;;18.10;;
65189;SDS011;51777;53.570;9.984;2023-07-29T05:06:29;29.25;;;17.95;;
65189;SDS011;51777;53.570;9.984;2023-07-29T05:08:56;33.25;;;18.02;;
65189;SDS011;51777;53.570;9.984;2023-07-29T05:11:22;28.90;;;17.80;;
65189;SDS011;51777;53.570;9.984;2023-07-29T05:13:47;26.70;;;17.25;;
65189;SDS011;51777;53.570;9.984;2023-07-29T05:16:13;28.48;;;17.15;;
65189;SDS011;51777;53.570;9.984;2023-07-29T05:18:38;27.52;;;18.35;;
65189;SDS011;51777;53.570;9.984;2023-07-29T05:21:05;29.75;;;17.42;;
65189;SDS011;51777;53.570;9.984;2023-07-29T05:23:30;28.25;;;17.38;;
65189;SDS011;51777;53.570;9.984;2023-07-29T05:25:56;24.05;;;15.95;;
65189;SDS011;51777;53.570;9.984;2023-07-29T05:28:21;18.88;;;14.65;;
65189;SDS011;51777;53.570;9.984;2023-07-29T05:30:46;22.85;;;15.65;;
65189;SDS011;51777;53.570;9.984;2023-07-29T05:33:12;26.48;;;15.82;;
65189;SDS011;51777;53.570;9.984;2023-07-29T05:35:37;21.85;;;15.38;;
65189;SDS011;51777;53.570;9.984;2023-07-29T05:38:03;22.88;;;14.55;;
65189;SDS011;51777;53.570;9.984;2023-07-29T05:40:30;20.40;;;13.65;;
65189;SDS011;51777;53.570;9.984;2023-07-29T05:42:55;20.55;;;14.82;;
65189;SDS011;51777;53.570;9.984;2023-07-29T05:45:21;21.02;;;15.82;;
65189;SDS011;51777;53.570;9.984;2023-07-29T05:47:46;28.15;;;18.17;;
65189;SDS011;51777;53.570;9.984;2023-07-29T05:50:12;25.20;;;15.95;;
65189;SDS011;51777;53.570;9.984;2023-07-29T05:52:37;21.83;;;14.93;;
65189;SDS011;51777;53.570;9.984;2023-07-29T05:55:03;25.73;;;15.15;;
65189;SDS011;51777;53.570;9.984;2023-07-29T05:57:29;19.08;;;14.18;;
65189;SDS011;51777;53.570;9.984;2023-07-29T05:59:54;22.25;;;14.65;;
65189;SDS011;51777;53.570;9.984;2023-07-29T06:02:20;22.30;;;15.02;;
65189;SDS011;51777;53.570;9.984;2023-07-29T06:04:45;20.27;;;15.65;;
65189;SDS011;51777;53.570;9.984;2023-07-29T06:07:10;20.33;;;15.48;;
65189;SDS011;51777;53.570;9.984;2023-07-29T06:09:36;23.65;;;15.43;;
65189;SDS011;51777;53.570;9.984;2023-07-29T06:12:01;23.00;;;15.23;;
65189;SDS011;51777;53.570;9.984;2023-07-29T06:14:27;25.50;;;15.93;;
65189;SDS011;51777;53.570;9.984;2023-07-29T06:16:52;20.42;;;14.35;;
65189;SDS011;51777;53.570;9.984;2023-07-29T06:19:18;22.83;;;14.77;;
65189;SDS011;51777;53.570;9.984;2023-07-29T06:21:45;24.50;;;14.80;;
65189;SDS011;51777;53.570;9.984;2023-07-29T06:24:10;22.40;;;15.57;;
65189;SDS011;51777;53.570;9.984;2023-07-29T06:26:35;22.33;;;14.95;;
65189;SDS011;51777;53.570;9.984;2023-07-29T06:29:01;18.85;;;13.52;;
65189;SDS011;51777;53.570;9.984;2023-07-29T06:31:26;22.67;;;15.05;;
65189;SDS011;51777;53.570;9.984;2023-07-29T06:33:52;22.02;;;14.77;;
65189;SDS011;51777;53.570;9.984;2023-07-29T06:36:17;23.45;;;14.68;;
65189;SDS011;51777;53.570;9.984;2023-07-29T06:38:43;23.83;;;14.98;;
65189;SDS011;51777;53.570;9.984;2023-07-29T06:41:08;23.30;;;14.80;;
65189;SDS011;51777;53.570;9.984;2023-07-29T06:43:33;20.10;;;13.70;;
65189;SDS011;51777;53.570;9.984;2023-07-29T06:45:59;28.73;;;14.88;;
65189;SDS011;51777;53.570;9.984;2023-07-29T06:48:24;24.25;;;15.15;;
65189;SDS011;51777;53.570;9.984;2023-07-29T06:50:50;22.67;;;14.27;;
65189;SDS011;51777;53.570;9.984;2023-07-29T06:53:15;21.92;;;14.73;;
65189;SDS011;51777;53.570;9.984;2023-07-29T06:55:41;22.90;;;14.65;;
65189;SDS011;51777;53.570;9.984;2023-07-29T06:58:07;25.25;;;14.45;;
65189;SDS011;51777;53.570;9.984;2023-07-29T07:00:32;23.63;;;13.88;;
65189;SDS011;51777;53.570;9.984;2023-07-29T07:02:58;20.45;;;13.27;;
65189;SDS011;51777;53.570;9.984;2023-07-29T07:05:23;19.42;;;13.30;;
65189;SDS011;51777;53.570;9.984;2023-07-29T07:07:49;20.13;;;13.98;;
65189;SDS011;51777;53.570;9.984;2023-07-29T07:10:14;24.40;;;14.73;;
65189;SDS011;51777;53.570;9.984;2023-07-29T07:12:39;23.10;;;14.00;;
65189;SDS011;51777;53.570;9.984;2023-07-29T07:15:05;26.58;;;14.48;;
65189;SDS011;51777;53.570;9.984;2023-07-29T07:17:31;21.23;;;14.48;;
65189;SDS011;51777;53.570;9.984;2023-07-29T07:19:56;20.75;;;14.15;;
65189;SDS011;51777;53.570;9.984;2023-07-29T07:22:22;21.70;;;14.70;;
65189;SDS011;51777;53.570;9.984;2023-07-29T07:24:47;21.92;;;14.75;;
65189;SDS011;51777;53.570;9.984;2023-07-29T07:27:13;20.70;;;13.75;;
65189;SDS011;51777;53.570;9.984;2023-07-29T07:29:39;24.30;;;14.48;;
65189;SDS011;51777;53.570;9.984;2023-07-29T07:32:04;22.02;;;14.20;;
65189;SDS011;51777;53.570;9.984;2023-07-29T07:34:30;21.05;;;14.40;;
65189;SDS011;51777;53.570;9.984;2023-07-29T07:36:55;20.63;;;14.43;;
65189;SDS011;51777;53.570;9.984;2023-07-29T07:39:21;21.23;;;14.30;;
65189;SDS011;51777;53.570;9.984;2023-07-29T07:41:46;21.42;;;14.95;;
65189;SDS011;51777;53.570;9.984;2023-07-29T07:44:12;21.98;;;15.43;;
65189;SDS011;51777;53.570;9.984;2023-07-29T07:46:40;20.92;;;14.30;;
65189;SDS011;51777;53.570;9.984;2023-07-29T07:49:06;22.15;;;13.80;;
65189;SDS011;51777;53.570;9.984;2023-07-29T07:51:31;23.48;;;13.32;;
65189;SDS011;51777;53.570;9.984;2023-07-29T07:53:57;19.55;;;12.32;;
65189;SDS011;51777;53.570;9.984;2023-07-29T07:56:22;17.38;;;11.27;;
65189;SDS011;51777;53.570;9.984;2023-07-29T07:58:47;15.32;;;10.38;;
65189;SDS011;51777;53.570;9.984;2023-07-29T08:01:13;16.42;;;11.00;;
65189;SDS011;51777;53.570;9.984;2023-07-29T08:03:39;15.35;;;10.20;;
65189;SDS011;51777;53.570;9.984;2023-07-29T08:06:05;16.15;;;11.13;;
65189;SDS011;51777;53.570;9.984;2023-07-29T08:08:30;14.55;;;10.90;;
65189;SDS011;51777;53.570;9.984;2023-07-29T08:10:57;15.27;;;11.25;;
65189;SDS011;51777;53.570;9.984;2023-07-29T08:13:22;16.02;;;10.65;;
65189;SDS011;51777;53.570;9.984;2023-07-29T08:15:49;16.08;;;10.40;;
65189;SDS011;51777;53.570;9.984;2023-07-29T08:18:16;12.02;;;9.20;;
65189;SDS011;51777;53.570;9.984;2023-07-29T08:20:50;15.35;;;10.85;;
65189;SDS011;51777;53.570;9.984;2023-07-29T08:23:26;13.82;;;9.52;;
65189;SDS011;51777;53.570;9.984;2023-07-29T08:25:52;16.73;;;10.52;;
65189;SDS011;51777;53.570;9.984;2023-07-29T08:28:26;15.60;;;10.48;;
65189;SDS011;51777;53.570;9.984;2023-07-29T08:30:52;12.82;;;10.18;;
65189;SDS011;51777;53.570;9.984;2023-07-29T08:33:17;16.35;;;10.63;;
65189;SDS011;51777;53.570;9.984;2023-07-29T08:35:42;13.48;;;10.43;;
65189;SDS011;51777;53.570;9.984;2023-07-29T08:38:08;13.57;;;9.57;;
65189;SDS011;51777;53.570;9.984;2023-07-29T08:40:34;20.98;;;10.70;;
65189;SDS011;51777;53.570;9.984;2023-07-29T08:43:02;11.27;;;7.90;;
65189;SDS011;51777;53.570;9.984;2023-07-29T08:45:34;12.40;;;8.88;;
65189;SDS011;51777;53.570;9.984;2023-07-29T08:48:02;12.65;;;9.23;;
65189;SDS011;51777;53.570;9.984;2023-07-29T08:50:29;15.38;;;10.82;;
65189;SDS011;51777;53.570;9.984;2023-07-29T08:52:57;12.40;;;10.27;;
65189;SDS011;51777;53.570;9.984;2023-07-29T08:55:24;13.10;;;9.18;;
65189;SDS011;51777;53.570;9.984;2023-07-29T08:57:50;13.65;;;10.25;;
65189;SDS011;51777;53.570;9.984;2023-07-29T09:00:16;13.73;;;9.65;;
65189;SDS011;51777;53.570;9.984;2023-07-29T09:02:42;21.10;;;14.18;;
65189;SDS011;51777;53.570;9.984;2023-07-29T09:05:07;15.52;;;10.43;;
65189;SDS011;51777;53.570;9.984;2023-07-29T09:07:33;15.63;;;11.20;;
65189;SDS011;51777;53.570;9.984;2023-07-29T09:10:01;13.70;;;9.30;;
65189;SDS011;51777;53.570;9.984;2023-07-29T09:12:26;15.63;;;9.80;;
65189;SDS011;51777;53.570;9.984;2023-07-29T09:14:52;14.43;;;10.65;;
65189;SDS011;51777;53.570;9.984;2023-07-29T09:17:18;14.18;;;10.93;;
65189;SDS011;51777;53.570;9.984;2023-07-29T09:19:49;17.40;;;11.07;;
65189;SDS011;51777;53.570;9.984;2023-07-29T09:22:19;13.32;;;10.02;;
65189;SDS011;51777;53.570;9.984;2023-07-29T09:24:45;12.32;;;10.02;;
65189;SDS011;51777;53.570;9.984;2023-07-29T09:27:27;13.10;;;9.90;;
65189;SDS011;51777;53.570;9.984;2023-07-29T09:32:22;14.98;;;9.65;;
65189;SDS011;51777;53.570;9.984;2023-07-29T09:34:49;13.30;;;9.52;;
65189;SDS011;51777;53.570;9.984;2023-07-29T09:37:16;11.82;;;8.80;;
65189;SDS011;51777;53.570;9.984;2023-07-29T09:39:45;12.75;;;8.93;;
65189;SDS011;51777;53.570;9.984;2023-07-29T09:42:16;16.10;;;8.50;;
65189;SDS011;51777;53.570;9.984;2023-07-29T09:44:43;13.32;;;8.00;;
65189;SDS011;51777;53.570;9.984;2023-07-29T09:47:08;10.05;;;7.88;;
65189;SDS011;51777;53.570;9.984;2023-07-29T09:49:34;7.68;;;5.93;;
65189;SDS011;51777;53.570;9.984;2023-07-29T09:52:01;8.70;;;6.55;;
65189;SDS011;51777;53.570;9.984;2023-07-29T09:54:29;11.35;;;7.18;;
65189;SDS011;51777;53.570;9.984;2023-07-29T09:56:55;8.93;;;5.68;;
65189;SDS011;51777;53.570;9.984;2023-07-29T09:59:23;8.90;;;5.40;;
65189;SDS011;51777;53.570;9.984;2023-07-29T10:01:49;8.48;;;4.90;;
65189;SDS011;51777;53.570;9.984;2023-07-29T10:04:15;6.97;;;3.50;;
65189;SDS011;51777;53.570;9.984;2023-07-29T10:06:42;5.00;;;3.90;;
65189;SDS011;51777;53.570;9.984;2023-07-29T10:09:08;4.80;;;3.40;;
65189;SDS011;51777;53.570;9.984;2023-07-29T10:11:36;4.57;;;4.10;;
65189;SDS011;51777;53.570;9.984;2023-07-29T10:14:02;5.25;;;4.30;;
65189;SDS011;51777;53.570;9.984;2023-07-29T10:16:28;4.18;;;3.35;;
65189;SDS011;51777;53.570;9.984;2023-07-29T10:18:54;3.38;;;2.63;;
65189;SDS011;51777;53.570;9.984;2023-07-29T10:21:21;3.33;;;3.00;;
65189;SDS011;51777;53.570;9.984;2023-07-29T10:23:48;4.28;;;3.08;;
65189;SDS011;51777;53.570;9.984;2023-07-29T10:26:19;6.30;;;3.13;;
65189;SDS011;51777;53.570;9.984;2023-07-29T10:28:46;5.93;;;3.22;;
65189;SDS011;51777;53.570;9.984;2023-07-29T10:31:13;4.60;;;3.17;;
65189;SDS011;51777;53.570;9.984;2023-07-29T10:33:41;2.95;;;2.55;;
65189;SDS011;51777;53.570;9.984;2023-07-29T10:36:08;3.33;;;3.03;;
65189;SDS011;51777;53.570;9.984;2023-07-29T10:38:34;3.28;;;3.00;;
65189;SDS011;51777;53.570;9.984;2023-07-29T10:41:00;3.05;;;2.75;;
65189;SDS011;51777;53.570;9.984;2023-07-29T10:46:20;5.05;;;2.88;;
65189;SDS011;51777;53.570;9.984;2023-07-29T10:51:31;8.50;;;3.28;;
65189;SDS011;51777;53.570;9.984;2023-07-29T10:54:01;7.10;;;3.40;;
65189;SDS011;51777;53.570;9.984;2023-07-29T10:56:31;7.13;;;3.22;;
65189;SDS011;51777;53.570;9.984;2023-07-29T10:59:02;7.00;;;2.92;;
65189;SDS011;51777;53.570;9.984;2023-07-29T11:01:51;7.00;;;2.50;;
65189;SDS011;51777;53.570;9.984;2023-07-29T11:09:41;4.45;;;2.30;;
65189;SDS011;51777;53.570;9.984;2023-07-29T11:15:28;5.55;;;2.30;;
65189;SDS011;51777;53.570;9.984;2023-07-29T11:17:58;3.08;;;2.58;;
65189;SDS011;51777;53.570;9.984;2023-07-29T11:20:30;4.55;;;2.80;;
65189;SDS011;51777;53.570;9.984;2023-07-29T11:23:01;3.60;;;2.60;;
65189;SDS011;51777;53.570;9.984;2023-07-29T11:25:29;2.40;;;2.17;;
65189;SDS011;51777;53.570;9.984;2023-07-29T11:27:56;2.50;;;2.03;;
65189;SDS011;51777;53.570;9.984;2023-07-29T11:30:24;2.40;;;2.20;;
65189;SDS011;51777;53.570;9.984;2023-07-29T11:32:57;2.47;;;1.30;;
65189;SDS011;51777;53.570;9.984;2023-07-29T11:38:16;4.15;;;1.80;;
65189;SDS011;51777;53.570;9.984;2023-07-29T11:40:43;4.35;;;1.95;;
65189;SDS011;51777;53.570;9.984;2023-07-29T11:43:18;4.32;;;2.17;;
65189;SDS011;51777;53.570;9.984;2023-07-29T11:45:44;2.63;;;1.63;;
65189;SDS011;51777;53.570;9.984;2023-07-29T11:48:10;2.58;;;1.80;;
65189;SDS011;51777;53.570;9.984;2023-07-29T11:50:35;2.25;;;1.95;;
65189;SDS011;51777;53.570;9.984;2023-07-29T11:53:02;3.40;;;2.00;;
65189;SDS011;51777;53.570;9.984;2023-07-29T11:55:28;2.92;;;1.90;;
65189;SDS011;51777;53.570;9.984;2023-07-29T11:57:54;2.75;;;1.80;;
65189;SDS011;51777;53.570;9.984;2023-07-29T12:00:20;2.95;;;1.60;;
65189;SDS011;51777;53.570;9.984;2023-07-29T12:02:46;2.45;;;1.73;;
65189;SDS011;51777;53.570;9.984;2023-07-29T12:05:14;2.60;;;1.80;;
65189;SDS011;51777;53.570;9.984;2023-07-29T12:07:41;2.65;;;1.80;;
65189;SDS011;51777;53.570;9.984;2023-07-29T12:10:09;1.80;;;1.70;;
65189;SDS011;51777;53.570;9.984;2023-07-29T12:12:45;2.50;;;1.88;;
65189;SDS011;51777;53.570;9.984;2023-07-29T12:15:12;2.25;;;1.50;;
65189;SDS011;51777;53.570;9.984;2023-07-29T12:17:39;3.30;;;1.50;;
65189;SDS011;51777;53.570;9.984;2023-07-29T12:20:07;2.30;;;1.50;;
65189;SDS011;51777;53.570;9.984;2023-07-29T12:22:34;4.88;;;1.52;;
65189;SDS011;51777;53.570;9.984;2023-07-29T12:24:59;4.93;;;1.38;;
65189;SDS011;51777;53.570;9.984;2023-07-29T12:27:26;1.50;;;1.40;;
65189;SDS011;51777;53.570;9.984;2023-07-29T12:29:52;1.73;;;1.35;;
65189;SDS011;51777;53.570;9.984;2023-07-29T12:32:18;1.58;;;1.40;;
65189;SDS011;51777;53.570;9.984;2023-07-29T12:34:44;1.30;;;1.20;;
65189;SDS011;51777;53.570;9.984;2023-07-29T12:37:13;4.00;;;1.20;;
65189;SDS011;51777;53.570;9.984;2023-07-29T12:39:42;1.10;;;1.00;;
65189;SDS011;51777;53.570;9.984;2023-07-29T12:42:07;2.50;;;1.20;;
65189;SDS011;51777;53.570;9.984;2023-07-29T12:44:34;1.20;;;1.08;;
65189;SDS011;51777;53.570;9.984;2023-07-29T12:47:02;1.30;;;1.20;;
65189;SDS011;51777;53.570;9.984;2023-07-29T12:49:29;8.35;;;1.10;;
65189;SDS011;51777;53.570;9.984;2023-07-29T12:51:55;1.13;;;0.90;;
65189;SDS011;51777;53.570;9.984;2023-07-29T12:54:24;2.17;;;1.10;;
65189;SDS011;51777;53.570;9.984;2023-07-29T12:56:50;0.80;;;0.80;;
65189;SDS011;51777;53.570;9.984;2023-07-29T12:59:17;1.38;;;1.02;;
65189;SDS011;51777;53.570;9.984;2023-07-29T13:01:43;1.05;;;1.00;;
65189;SDS011;51777;53.570;9.984;2023-07-29T13:04:09;2.55;;;1.10;;
65189;SDS011;51777;53.570;9.984;2023-07-29T13:06:35;1.60;;;1.10;;
65189;SDS011;51777;53.570;9.984;2023-07-29T13:09:00;2.20;;;1.30;;
65189;SDS011;51777;53.570;9.984;2023-07-29T13:11:25;1.10;;;0.90;;
65189;SDS011;51777;53.570;9.984;2023-07-29T13:13:51;1.67;;;1.02;;
65189;SDS011;51777;53.570;9.984;2023-07-29T13:16:16;1.80;;;1.30;;
65189;SDS011;51777;53.570;9.984;2023-07-29T13:18:43;0.98;;;0.93;;
65189;SDS011;51777;53.570;9.984;2023-07-29T13:21:08;1.17;;;1.00;;
65189;SDS011;51777;53.570;9.984;2023-07-29T13:23:34;2.83;;;1.13;;
65189;SDS011;51777;53.570;9.984;2023-07-29T13:26:00;1.38;;;1.10;;
65189;SDS011;51777;53.570;9.984;2023-07-29T13:28:26;2.10;;;1.02;;
65189;SDS011;51777;53.570;9.984;2023-07-29T13:30:51;2.55;;;1.65;;
65189;SDS011;51777;53.570;9.984;2023-07-29T13:33:16;1.95;;;1.00;;
65189;SDS011;51777;53.570;9.984;2023-07-29T13:35:42;1.05;;;1.00;;
65189;SDS011;51777;53.570;9.984;2023-07-29T13:38:07;1.77;;;1.10;;
65189;SDS011;51777;53.570;9.984;2023-07-29T13:40:33;2.13;;;1.30;;
65189;SDS011;51777;53.570;9.984;2023-07-29T13:42:59;1.67;;;1.35;;
65189;SDS011;51777;53.570;9.984;2023-07-29T13:45:25;1.38;;;1.20;;
65189;SDS011;51777;53.570;9.984;2023-07-29T13:47:50;1.27;;;1.08;;
65189;SDS011;51777;53.570;9.984;2023-07-29T13:50:16;1.90;;;1.00;;
65189;SDS011;51777;53.570;9.984;2023-07-29T13:52:43;1.48;;;1.35;;
65189;SDS011;51777;53.570;9.984;2023-07-29T13:55:09;1.48;;;1.08;;
65189;SDS011;51777;53.570;9.984;2023-07-29T13:57:35;4.05;;;1.10;;
65189;SDS011;51777;53.570;9.984;2023-07-29T14:00:05;1.17;;;1.08;;
65189;SDS011;51777;53.570;9.984;2023-07-29T14:02:31;2.38;;;1.20;;
65189;SDS011;51777;53.570;9.984;2023-07-29T14:04:56;2.60;;;1.10;;
65189;SDS011;51777;53.570;9.984;2023-07-29T14:07:22;1.20;;;1.10;;
65189;SDS011;51777;53.570;9.984;2023-07-29T14:09:47;3.95;;;1.10;;
65189;SDS011;51777;53.570;9.984;2023-07-29T14:12:13;1.67;;;1.08;;
65189;SDS011;51777;53.570;9.984;2023-07-29T14:14:40;3.92;;;1.10;;
65189;SDS011;51777;53.570;9.984;2023-07-29T14:17:06;2.47;;;1.20;;
65189;SDS011;51777;53.570;9.984;2023-07-29T14:19:33;1.25;;;0.90;;
65189;SDS011;51777;53.570;9.984;2023-07-29T14:21:59;1.35;;;1.13;;
65189;SDS011;51777;53.570;9.984;2023-07-29T14:24:24;1.95;;;1.20;;
65189;SDS011;51777;53.570;9.984;2023-07-29T14:26:50;1.65;;;1.17;;
65189;SDS011;51777;53.570;9.984;2023-07-29T14:29:15;4.82;;;1.52;;
65189;SDS011;51777;53.570;9.984;2023-07-29T14:31:41;1.20;;;1.10;;
65189;SDS011;51777;53.570;9.984;2023-07-29T14:34:06;1.85;;;1.20;;
65189;SDS011;51777;53.570;9.984;2023-07-29T14:36:32;1.40;;;1.00;;
65189;SDS011;51777;53.570;9.984;2023-07-29T14:38:58;1.30;;;1.17;;
65189;SDS011;51777;53.570;9.984;2023-07-29T14:41:23;1.08;;;0.90;;
65189;SDS011;51777;53.570;9.984;2023-07-29T14:43:49;3.25;;;1.10;;
65189;SDS011;51777;53.570;9.984;2023-07-29T14:46:14;2.30;;;1.10;;
65189;SDS011;51777;53.570;9.984;2023-07-29T14:48:39;1.35;;;1.00;;
65189;SDS011;51777;53.570;9.984;2023-07-29T14:51:05;2.60;;;0.93;;
65189;SDS011;51777;53.570;9.984;2023-07-29T14:53:30;2.83;;;1.00;;
65189;SDS011;51777;53.570;9.984;2023-07-29T14:55:56;1.50;;;1.00;;
65189;SDS011;51777;53.570;9.984;2023-07-29T14:58:24;1.23;;;1.10;;